sensor_id;sensor_type;location;lat;lon;timestamp;pressure;altitude;pressure_sealevel;temperature
10598;BMP180;5346;48.766;8.674;2023-06-19T00:02:24;93939.00;;;20.70
10598;BMP180;5346;48.766;8.674;2023-06-19T00:04:59;93941.00;;;20.70
10598;BMP180;5346;48.766;8.674;2023-06-19T00:07:40;93938.00;;;20.70
10598;BMP180;5346;48.766;8.674;2023-06-19T00:10:14;93944.00;;;20.80
10598;BMP180;5346;48.766;8.674;2023-06-19T00:12:42;93943.00;;;20.70
10598;BMP180;5346;48.766;8.674;2023-06-19T00:15:16;93945.00;;;20.60
10598;BMP180;5346;48.766;8.674;2023-06-19T00:17:50;93941.00;;;20.60
10598;BMP180;5346;48.766;8.674;2023-06-19T00:20:24;93949.00;;;20.70
10598;BMP180;5346;48.766;8.674;2023-06-19T00:22:58;93938.00;;;20.80
10598;BMP180;5346;48.766;8.674;2023-06-19T00:25:32;93943.00;;;20.60
10598;BMP180;5346;48.766;8.674;2023-06-19T00:28:06;93939.00;;;20.60
10598;BMP180;5346;48.766;8.674;2023-06-19T00:30:47;93961.00;;;20.60
10598;BMP180;5346;48.766;8.674;2023-06-19T00:33:21;93996.00;;;21.10
10598;BMP180;5346;48.766;8.674;2023-06-19T00:35:52;94001.00;;;21.10
10598;BMP180;5346;48.766;8.674;2023-06-19T00:38:28;94004.00;;;20.70
10598;BMP180;5346;48.766;8.674;2023-06-19T00:40:56;94007.00;;;20.60
10598;BMP180;5346;48.766;8.674;2023-06-19T00:43:30;94014.00;;;20.30
10598;BMP180;5346;48.766;8.674;2023-06-19T00:46:04;94024.00;;;20.40
10598;BMP180;5346;48.766;8.674;2023-06-19T00:48:39;94020.00;;;20.20
10598;BMP180;5346;48.766;8.674;2023-06-19T00:51:07;94031.00;;;20.00
10598;BMP180;5346;48.766;8.674;2023-06-19T00:53:34;94022.00;;;20.00
10598;BMP180;5346;48.766;8.674;2023-06-19T00:56:09;94026.00;;;19.90
10598;BMP180;5346;48.766;8.674;2023-06-19T00:58:43;94022.00;;;19.80
10598;BMP180;5346;48.766;8.674;2023-06-19T01:01:11;94028.00;;;19.70
10598;BMP180;5346;48.766;8.674;2023-06-19T01:03:45;94034.00;;;19.70
10598;BMP180;5346;48.766;8.674;2023-06-19T01:06:19;94026.00;;;19.50
10598;BMP180;5346;48.766;8.674;2023-06-19T01:09:08;94023.00;;;19.50
10598;BMP180;5346;48.766;8.674;2023-06-19T01:11:48;94029.00;;;19.40
10598;BMP180;5346;48.766;8.674;2023-06-19T01:14:28;94032.00;;;19.20
10598;BMP180;5346;48.766;8.674;2023-06-19T01:16:56;94024.00;;;19.10
10598;BMP180;5346;48.766;8.674;2023-06-19T01:19:30;94025.00;;;19.00
10598;BMP180;5346;48.766;8.674;2023-06-19T01:22:05;94022.00;;;18.90
10598;BMP180;5346;48.766;8.674;2023-06-19T01:24:40;94023.00;;;19.00
10598;BMP180;5346;48.766;8.674;2023-06-19T01:27:14;94029.00;;;18.90
10598;BMP180;5346;48.766;8.674;2023-06-19T01:29:48;94030.00;;;18.90
10598;BMP180;5346;48.766;8.674;2023-06-19T01:32:53;94030.00;;;19.00
10598;BMP180;5346;48.766;8.674;2023-06-19T01:35:29;94012.00;;;19.00
10598;BMP180;5346;48.766;8.674;2023-06-19T01:38:05;94005.00;;;19.00
10598;BMP180;5346;48.766;8.674;2023-06-19T01:40:42;94008.00;;;19.00
10598;BMP180;5346;48.766;8.674;2023-06-19T01:43:17;94018.00;;;19.10
10598;BMP180;5346;48.766;8.674;2023-06-19T01:45:52;94016.00;;;19.10
10598;BMP180;5346;48.766;8.674;2023-06-19T01:48:27;94010.00;;;19.10
10598;BMP180;5346;48.766;8.674;2023-06-19T01:50:55;94005.00;;;19.10
10598;BMP180;5346;48.766;8.674;2023-06-19T01:53:31;94016.00;;;18.80
10598;BMP180;5346;48.766;8.674;2023-06-19T01:56:05;94009.00;;;18.30
10598;BMP180;5346;48.766;8.674;2023-06-19T01:58:33;94003.00;;;17.80
10598;BMP180;5346;48.766;8.674;2023-06-19T02:01:08;93996.00;;;17.50
10598;BMP180;5346;48.766;8.674;2023-06-19T02:03:35;94006.00;;;17.30
10598;BMP180;5346;48.766;8.674;2023-06-19T02:06:16;93997.00;;;17.00
10598;BMP180;5346;48.766;8.674;2023-06-19T02:08:47;94005.00;;;16.70
10598;BMP180;5346;48.766;8.674;2023-06-19T02:11:22;94009.00;;;16.50
10598;BMP180;5346;48.766;8.674;2023-06-19T02:13:57;94003.00;;;16.30
10598;BMP180;5346;48.766;8.674;2023-06-19T02:16:31;94009.00;;;16.00
10598;BMP180;5346;48.766;8.674;2023-06-19T02:18:59;94012.00;;;16.00
10598;BMP180;5346;48.766;8.674;2023-06-19T02:21:34;94013.00;;;16.10
10598;BMP180;5346;48.766;8.674;2023-06-19T02:24:02;94023.00;;;16.20
10598;BMP180;5346;48.766;8.674;2023-06-19T02:26:36;94020.00;;;16.10
10598;BMP180;5346;48.766;8.674;2023-06-19T02:29:04;94020.00;;;16.10
10598;BMP180;5346;48.766;8.674;2023-06-19T02:31:38;94021.00;;;16.30
10598;BMP180;5346;48.766;8.674;2023-06-19T02:34:14;94019.00;;;16.30
10598;BMP180;5346;48.766;8.674;2023-06-19T02:36:48;94018.00;;;16.40
10598;BMP180;5346;48.766;8.674;2023-06-19T02:39:22;94020.00;;;16.80
10598;BMP180;5346;48.766;8.674;2023-06-19T02:41:59;94013.00;;;16.90
10598;BMP180;5346;48.766;8.674;2023-06-19T02:44:33;94011.00;;;17.00
10598;BMP180;5346;48.766;8.674;2023-06-19T02:47:03;94012.00;;;17.20
10598;BMP180;5346;48.766;8.674;2023-06-19T02:49:37;94011.00;;;17.30
10598;BMP180;5346;48.766;8.674;2023-06-19T02:52:05;94010.00;;;17.40
10598;BMP180;5346;48.766;8.674;2023-06-19T02:54:39;94015.00;;;17.50
10598;BMP180;5346;48.766;8.674;2023-06-19T02:57:07;94010.00;;;17.60
10598;BMP180;5346;48.766;8.674;2023-06-19T02:59:42;94020.00;;;17.80
10598;BMP180;5346;48.766;8.674;2023-06-19T03:02:13;94012.00;;;17.60
10598;BMP180;5346;48.766;8.674;2023-06-19T03:04:48;94009.00;;;17.60
10598;BMP180;5346;48.766;8.674;2023-06-19T03:07:28;94022.00;;;17.70
10598;BMP180;5346;48.766;8.674;2023-06-19T03:10:03;94019.00;;;17.80
10598;BMP180;5346;48.766;8.674;2023-06-19T03:12:31;94021.00;;;17.60
10598;BMP180;5346;48.766;8.674;2023-06-19T03:15:00;94029.00;;;17.70
10598;BMP180;5346;48.766;8.674;2023-06-19T03:17:34;94037.00;;;17.70
10598;BMP180;5346;48.766;8.674;2023-06-19T03:20:08;94023.00;;;17.90
10598;BMP180;5346;48.766;8.674;2023-06-19T03:22:46;94022.00;;;17.90
10598;BMP180;5346;48.766;8.674;2023-06-19T03:25:14;94017.00;;;17.80
10598;BMP180;5346;48.766;8.674;2023-06-19T03:27:48;94015.00;;;17.90
10598;BMP180;5346;48.766;8.674;2023-06-19T03:30:16;94035.00;;;18.10
10598;BMP180;5346;48.766;8.674;2023-06-19T03:32:52;94027.00;;;18.10
10598;BMP180;5346;48.766;8.674;2023-06-19T03:35:28;94014.00;;;18.10
10598;BMP180;5346;48.766;8.674;2023-06-19T03:37:58;94018.00;;;18.00
10598;BMP180;5346;48.766;8.674;2023-06-19T03:40:26;94026.00;;;17.90
10598;BMP180;5346;48.766;8.674;2023-06-19T03:43:00;94030.00;;;18.10
10598;BMP180;5346;48.766;8.674;2023-06-19T03:45:27;94032.00;;;18.10
10598;BMP180;5346;48.766;8.674;2023-06-19T03:48:02;94025.00;;;18.20
10598;BMP180;5346;48.766;8.674;2023-06-19T03:50:30;94027.00;;;18.20
10598;BMP180;5346;48.766;8.674;2023-06-19T03:53:04;94030.00;;;18.30
10598;BMP180;5346;48.766;8.674;2023-06-19T03:55:38;94037.00;;;18.30
10598;BMP180;5346;48.766;8.674;2023-06-19T03:58:12;94032.00;;;18.40
10598;BMP180;5346;48.766;8.674;2023-06-19T04:00:49;94034.00;;;18.30
10598;BMP180;5346;48.766;8.674;2023-06-19T04:03:33;94038.00;;;18.30
10598;BMP180;5346;48.766;8.674;2023-06-19T04:06:01;94046.00;;;18.20
10598;BMP180;5346;48.766;8.674;2023-06-19T04:08:42;94032.00;;;18.40
10598;BMP180;5346;48.766;8.674;2023-06-19T04:11:10;94040.00;;;18.50
10598;BMP180;5346;48.766;8.674;2023-06-19T04:13:44;94052.00;;;18.50
10598;BMP180;5346;48.766;8.674;2023-06-19T04:16:19;94048.00;;;18.70
10598;BMP180;5346;48.766;8.674;2023-06-19T04:18:49;94047.00;;;18.60
10598;BMP180;5346;48.766;8.674;2023-06-19T04:21:23;94048.00;;;18.60
10598;BMP180;5346;48.766;8.674;2023-06-19T04:23:57;94050.00;;;18.70
10598;BMP180;5346;48.766;8.674;2023-06-19T04:26:30;94039.00;;;18.70
10598;BMP180;5346;48.766;8.674;2023-06-19T04:28:58;94036.00;;;18.90
10598;BMP180;5346;48.766;8.674;2023-06-19T04:31:34;94044.00;;;18.80
10598;BMP180;5346;48.766;8.674;2023-06-19T04:34:16;94043.00;;;18.80
10598;BMP180;5346;48.766;8.674;2023-06-19T04:36:44;94039.00;;;18.80
10598;BMP180;5346;48.766;8.674;2023-06-19T04:39:25;94042.00;;;18.80
10598;BMP180;5346;48.766;8.674;2023-06-19T04:41:53;94042.00;;;18.90
10598;BMP180;5346;48.766;8.674;2023-06-19T04:44:28;94037.00;;;18.90
10598;BMP180;5346;48.766;8.674;2023-06-19T04:46:57;94028.00;;;19.00
10598;BMP180;5346;48.766;8.674;2023-06-19T04:49:35;94029.00;;;18.90
10598;BMP180;5346;48.766;8.674;2023-06-19T04:52:03;94022.00;;;19.00
10598;BMP180;5346;48.766;8.674;2023-06-19T04:54:37;94026.00;;;19.00
10598;BMP180;5346;48.766;8.674;2023-06-19T04:57:11;94024.00;;;19.10
10598;BMP180;5346;48.766;8.674;2023-06-19T04:59:41;94025.00;;;19.20
10598;BMP180;5346;48.766;8.674;2023-06-19T05:02:16;94025.00;;;19.20
10598;BMP180;5346;48.766;8.674;2023-06-19T05:04:44;94031.00;;;19.30
10598;BMP180;5346;48.766;8.674;2023-06-19T05:07:24;94030.00;;;19.40
10598;BMP180;5346;48.766;8.674;2023-06-19T05:10:01;94031.00;;;19.50
10598;BMP180;5346;48.766;8.674;2023-06-19T05:12:38;94031.00;;;19.50
10598;BMP180;5346;48.766;8.674;2023-06-19T05:15:12;94032.00;;;19.60
10598;BMP180;5346;48.766;8.674;2023-06-19T05:17:46;94035.00;;;19.50
10598;BMP180;5346;48.766;8.674;2023-06-19T05:20:20;94035.00;;;19.70
10598;BMP180;5346;48.766;8.674;2023-06-19T05:22:49;94039.00;;;19.70
10598;BMP180;5346;48.766;8.674;2023-06-19T05:25:25;94042.00;;;19.60
10598;BMP180;5346;48.766;8.674;2023-06-19T05:27:52;94041.00;;;19.60
10598;BMP180;5346;48.766;8.674;2023-06-19T05:30:29;94045.00;;;19.60
10598;BMP180;5346;48.766;8.674;2023-06-19T05:33:04;94042.00;;;19.60
10598;BMP180;5346;48.766;8.674;2023-06-19T05:35:38;94036.00;;;19.70
10598;BMP180;5346;48.766;8.674;2023-06-19T05:38:05;94036.00;;;19.70
10598;BMP180;5346;48.766;8.674;2023-06-19T05:40:40;94041.00;;;19.60
10598;BMP180;5346;48.766;8.674;2023-06-19T05:43:07;94031.00;;;19.70
10598;BMP180;5346;48.766;8.674;2023-06-19T05:45:42;94036.00;;;19.70
10598;BMP180;5346;48.766;8.674;2023-06-19T05:48:16;94041.00;;;19.70
10598;BMP180;5346;48.766;8.674;2023-06-19T05:50:45;94036.00;;;19.70
10598;BMP180;5346;48.766;8.674;2023-06-19T05:53:20;94040.00;;;19.70
10598;BMP180;5346;48.766;8.674;2023-06-19T05:55:47;94039.00;;;19.80
10598;BMP180;5346;48.766;8.674;2023-06-19T05:58:22;94044.00;;;19.90
10598;BMP180;5346;48.766;8.674;2023-06-19T06:00:51;94048.00;;;19.90
10598;BMP180;5346;48.766;8.674;2023-06-19T06:03:31;94053.00;;;19.90
10598;BMP180;5346;48.766;8.674;2023-06-19T06:05:59;94053.00;;;19.90
10598;BMP180;5346;48.766;8.674;2023-06-19T06:08:40;94061.00;;;19.90
10598;BMP180;5346;48.766;8.674;2023-06-19T06:11:11;94067.00;;;20.00
10598;BMP180;5346;48.766;8.674;2023-06-19T06:13:45;94061.00;;;20.10
10598;BMP180;5346;48.766;8.674;2023-06-19T06:16:13;94068.00;;;20.30
10598;BMP180;5346;48.766;8.674;2023-06-19T06:18:48;94072.00;;;20.40
10598;BMP180;5346;48.766;8.674;2023-06-19T06:21:22;94086.00;;;20.60
10598;BMP180;5346;48.766;8.674;2023-06-19T06:23:57;94090.00;;;20.60
10598;BMP180;5346;48.766;8.674;2023-06-19T06:26:26;94098.00;;;20.50
10598;BMP180;5346;48.766;8.674;2023-06-19T06:29:02;94098.00;;;20.50
10598;BMP180;5346;48.766;8.674;2023-06-19T06:31:29;94105.00;;;20.80
10598;BMP180;5346;48.766;8.674;2023-06-19T06:34:04;94090.00;;;21.00
10598;BMP180;5346;48.766;8.674;2023-06-19T06:36:31;94102.00;;;20.90
10598;BMP180;5346;48.766;8.674;2023-06-19T06:39:19;94103.00;;;21.10
10598;BMP180;5346;48.766;8.674;2023-06-19T06:41:46;94100.00;;;21.00
10598;BMP180;5346;48.766;8.674;2023-06-19T06:44:20;94110.00;;;21.10
10598;BMP180;5346;48.766;8.674;2023-06-19T06:46:54;94100.00;;;21.40
10598;BMP180;5346;48.766;8.674;2023-06-19T06:49:29;94092.00;;;21.80
10598;BMP180;5346;48.766;8.674;2023-06-19T06:52:05;94081.00;;;22.20
10598;BMP180;5346;48.766;8.674;2023-06-19T06:54:39;94102.00;;;22.40
10598;BMP180;5346;48.766;8.674;2023-06-19T06:57:13;94107.00;;;22.20
10598;BMP180;5346;48.766;8.674;2023-06-19T07:00:06;94110.00;;;22.10
10598;BMP180;5346;48.766;8.674;2023-06-19T07:02:43;94109.00;;;21.80
10598;BMP180;5346;48.766;8.674;2023-06-19T07:05:19;94120.00;;;21.80
10598;BMP180;5346;48.766;8.674;2023-06-19T07:07:59;94112.00;;;22.10
10598;BMP180;5346;48.766;8.674;2023-06-19T07:10:34;94107.00;;;22.80
10598;BMP180;5346;48.766;8.674;2023-06-19T07:13:09;94111.00;;;23.80
10598;BMP180;5346;48.766;8.674;2023-06-19T07:15:37;94116.00;;;24.10
10598;BMP180;5346;48.766;8.674;2023-06-19T07:18:11;94120.00;;;24.40
10598;BMP180;5346;48.766;8.674;2023-06-19T07:20:40;94116.00;;;24.60
10598;BMP180;5346;48.766;8.674;2023-06-19T07:23:19;94115.00;;;24.70
10598;BMP180;5346;48.766;8.674;2023-06-19T07:25:52;94111.00;;;24.90
10598;BMP180;5346;48.766;8.674;2023-06-19T07:28:27;94119.00;;;25.10
10598;BMP180;5346;48.766;8.674;2023-06-19T07:31:02;94117.00;;;24.80
10598;BMP180;5346;48.766;8.674;2023-06-19T07:33:36;94123.00;;;25.40
10598;BMP180;5346;48.766;8.674;2023-06-19T07:36:05;94121.00;;;25.80
10598;BMP180;5346;48.766;8.674;2023-06-19T07:38:40;94132.00;;;25.90
10598;BMP180;5346;48.766;8.674;2023-06-19T07:41:14;94144.00;;;25.60
10598;BMP180;5346;48.766;8.674;2023-06-19T07:43:51;94135.00;;;25.30
10598;BMP180;5346;48.766;8.674;2023-06-19T07:46:19;94127.00;;;25.00
10598;BMP180;5346;48.766;8.674;2023-06-19T07:48:47;94132.00;;;25.30
10598;BMP180;5346;48.766;8.674;2023-06-19T07:51:25;94147.00;;;25.30
10598;BMP180;5346;48.766;8.674;2023-06-19T07:53:54;94136.00;;;25.20
10598;BMP180;5346;48.766;8.674;2023-06-19T07:56:30;94134.00;;;25.10
10598;BMP180;5346;48.766;8.674;2023-06-19T07:59:00;94125.00;;;25.40
10598;BMP180;5346;48.766;8.674;2023-06-19T08:01:34;94122.00;;;25.70
10598;BMP180;5346;48.766;8.674;2023-06-19T08:04:02;94114.00;;;26.00
10598;BMP180;5346;48.766;8.674;2023-06-19T08:06:36;94140.00;;;25.80
10598;BMP180;5346;48.766;8.674;2023-06-19T08:09:17;94144.00;;;25.60
10598;BMP180;5346;48.766;8.674;2023-06-19T08:11:47;94144.00;;;25.40
10598;BMP180;5346;48.766;8.674;2023-06-19T08:14:21;94147.00;;;25.80
10598;BMP180;5346;48.766;8.674;2023-06-19T08:16:49;94143.00;;;25.50
10598;BMP180;5346;48.766;8.674;2023-06-19T08:19:26;94149.00;;;25.60
10598;BMP180;5346;48.766;8.674;2023-06-19T08:22:01;94159.00;;;25.50
10598;BMP180;5346;48.766;8.674;2023-06-19T08:24:28;94160.00;;;24.70
10598;BMP180;5346;48.766;8.674;2023-06-19T08:27:03;94159.00;;;24.50
10598;BMP180;5346;48.766;8.674;2023-06-19T08:29:38;94151.00;;;24.50
10598;BMP180;5346;48.766;8.674;2023-06-19T08:32:11;94097.00;;;25.00
10598;BMP180;5346;48.766;8.674;2023-06-19T08:34:39;94144.00;;;26.20
10598;BMP180;5346;48.766;8.674;2023-06-19T08:37:16;94128.00;;;26.40
10598;BMP180;5346;48.766;8.674;2023-06-19T08:39:55;94124.00;;;26.60
10598;BMP180;5346;48.766;8.674;2023-06-19T08:42:23;94118.00;;;26.50
10598;BMP180;5346;48.766;8.674;2023-06-19T08:45:06;94137.00;;;26.00
10598;BMP180;5346;48.766;8.674;2023-06-19T08:47:43;94126.00;;;26.20
10598;BMP180;5346;48.766;8.674;2023-06-19T08:50:15;94115.00;;;27.30
10598;BMP180;5346;48.766;8.674;2023-06-19T08:52:50;94118.00;;;27.50
10598;BMP180;5346;48.766;8.674;2023-06-19T08:55:25;94114.00;;;29.10
10598;BMP180;5346;48.766;8.674;2023-06-19T08:58:00;94126.00;;;29.30
10598;BMP180;5346;48.766;8.674;2023-06-19T09:00:34;94140.00;;;28.40
10598;BMP180;5346;48.766;8.674;2023-06-19T09:03:04;94144.00;;;27.10
10598;BMP180;5346;48.766;8.674;2023-06-19T09:05:44;94138.00;;;27.60
10598;BMP180;5346;48.766;8.674;2023-06-19T09:08:26;94170.00;;;26.20
10598;BMP180;5346;48.766;8.674;2023-06-19T09:11:02;94178.00;;;25.40
10598;BMP180;5346;48.766;8.674;2023-06-19T09:13:37;94149.00;;;25.00
10598;BMP180;5346;48.766;8.674;2023-06-19T09:16:06;94137.00;;;26.40
10598;BMP180;5346;48.766;8.674;2023-06-19T09:18:48;94137.00;;;26.10
10598;BMP180;5346;48.766;8.674;2023-06-19T09:21:20;94135.00;;;26.60
10598;BMP180;5346;48.766;8.674;2023-06-19T09:24:06;94140.00;;;27.00
10598;BMP180;5346;48.766;8.674;2023-06-19T09:26:41;94137.00;;;27.10
10598;BMP180;5346;48.766;8.674;2023-06-19T09:29:15;94143.00;;;27.00
10598;BMP180;5346;48.766;8.674;2023-06-19T09:31:53;94142.00;;;26.70
10598;BMP180;5346;48.766;8.674;2023-06-19T09:34:23;94129.00;;;27.40
10598;BMP180;5346;48.766;8.674;2023-06-19T09:36:58;94160.00;;;28.70
10598;BMP180;5346;48.766;8.674;2023-06-19T09:39:28;94154.00;;;27.10
10598;BMP180;5346;48.766;8.674;2023-06-19T09:42:03;94154.00;;;27.40
10598;BMP180;5346;48.766;8.674;2023-06-19T09:44:41;94158.00;;;27.00
10598;BMP180;5346;48.766;8.674;2023-06-19T09:47:23;94149.00;;;25.90
10598;BMP180;5346;48.766;8.674;2023-06-19T09:49:59;94134.00;;;26.60
10598;BMP180;5346;48.766;8.674;2023-06-19T09:52:32;94123.00;;;27.40
10598;BMP180;5346;48.766;8.674;2023-06-19T09:55:09;94123.00;;;27.70
10598;BMP180;5346;48.766;8.674;2023-06-19T09:57:47;94120.00;;;27.80
10598;BMP180;5346;48.766;8.674;2023-06-19T10:00:22;94146.00;;;27.60
10598;BMP180;5346;48.766;8.674;2023-06-19T10:02:54;94135.00;;;26.80
10598;BMP180;5346;48.766;8.674;2023-06-19T10:05:39;94140.00;;;27.90
10598;BMP180;5346;48.766;8.674;2023-06-19T10:08:41;94141.00;;;26.60
10598;BMP180;5346;48.766;8.674;2023-06-19T10:11:22;94133.00;;;28.00
10598;BMP180;5346;48.766;8.674;2023-06-19T10:14:06;94133.00;;;26.30
10598;BMP180;5346;48.766;8.674;2023-06-19T10:16:41;94134.00;;;26.60
10598;BMP180;5346;48.766;8.674;2023-06-19T10:19:22;94123.00;;;26.90
10598;BMP180;5346;48.766;8.674;2023-06-19T10:22:00;94107.00;;;28.10
10598;BMP180;5346;48.766;8.674;2023-06-19T10:24:37;94115.00;;;28.70
10598;BMP180;5346;48.766;8.674;2023-06-19T10:27:24;94106.00;;;28.90
10598;BMP180;5346;48.766;8.674;2023-06-19T10:30:00;94101.00;;;29.10
10598;BMP180;5346;48.766;8.674;2023-06-19T10:32:36;94101.00;;;28.90
10598;BMP180;5346;48.766;8.674;2023-06-19T10:35:12;94098.00;;;29.80
10598;BMP180;5346;48.766;8.674;2023-06-19T10:37:47;94095.00;;;29.00
10598;BMP180;5346;48.766;8.674;2023-06-19T10:40:21;94102.00;;;29.60
10598;BMP180;5346;48.766;8.674;2023-06-19T10:42:52;94100.00;;;29.70
10598;BMP180;5346;48.766;8.674;2023-06-19T10:45:28;94095.00;;;29.40
10598;BMP180;5346;48.766;8.674;2023-06-19T10:47:57;94089.00;;;29.50
10598;BMP180;5346;48.766;8.674;2023-06-19T10:50:37;94091.00;;;29.80
10598;BMP180;5346;48.766;8.674;2023-06-19T10:53:06;94095.00;;;29.10
10598;BMP180;5346;48.766;8.674;2023-06-19T10:55:42;94090.00;;;30.10
10598;BMP180;5346;48.766;8.674;2023-06-19T10:58:15;94092.00;;;30.10
10598;BMP180;5346;48.766;8.674;2023-06-19T11:00:50;94117.00;;;29.80
10598;BMP180;5346;48.766;8.674;2023-06-19T11:03:23;94083.00;;;28.80
10598;BMP180;5346;48.766;8.674;2023-06-19T11:06:04;94126.00;;;28.90
10598;BMP180;5346;48.766;8.674;2023-06-19T11:08:51;94113.00;;;27.50
10598;BMP180;5346;48.766;8.674;2023-06-19T11:14:10;94119.00;;;27.30
10598;BMP180;5346;48.766;8.674;2023-06-19T11:16:46;94113.00;;;27.00
10598;BMP180;5346;48.766;8.674;2023-06-19T11:19:19;94103.00;;;28.00
10598;BMP180;5346;48.766;8.674;2023-06-19T11:22:00;94115.00;;;28.40
10598;BMP180;5346;48.766;8.674;2023-06-19T11:24:30;94108.00;;;28.40
10598;BMP180;5346;48.766;8.674;2023-06-19T11:27:04;94116.00;;;28.10
10598;BMP180;5346;48.766;8.674;2023-06-19T11:29:34;94098.00;;;28.40
10598;BMP180;5346;48.766;8.674;2023-06-19T11:32:15;94097.00;;;28.70
10598;BMP180;5346;48.766;8.674;2023-06-19T11:34:53;94087.00;;;29.70
10598;BMP180;5346;48.766;8.674;2023-06-19T11:37:21;94083.00;;;29.40
10598;BMP180;5346;48.766;8.674;2023-06-19T11:39:57;94082.00;;;29.60
10598;BMP180;5346;48.766;8.674;2023-06-19T11:42:25;94076.00;;;30.10
10598;BMP180;5346;48.766;8.674;2023-06-19T11:45:03;94075.00;;;29.90
10598;BMP180;5346;48.766;8.674;2023-06-19T11:47:45;94066.00;;;31.30
10598;BMP180;5346;48.766;8.674;2023-06-19T11:50:14;94067.00;;;31.60
10598;BMP180;5346;48.766;8.674;2023-06-19T11:52:51;94050.00;;;33.00
10598;BMP180;5346;48.766;8.674;2023-06-19T11:55:19;94046.00;;;32.30
10598;BMP180;5346;48.766;8.674;2023-06-19T11:57:47;94049.00;;;33.20
10598;BMP180;5346;48.766;8.674;2023-06-19T12:00:21;94053.00;;;32.80
10598;BMP180;5346;48.766;8.674;2023-06-19T12:02:55;94045.00;;;32.80
10598;BMP180;5346;48.766;8.674;2023-06-19T12:05:31;94090.00;;;33.50
10598;BMP180;5346;48.766;8.674;2023-06-19T12:08:12;94088.00;;;32.60
10598;BMP180;5346;48.766;8.674;2023-06-19T12:10:47;94088.00;;;31.30
10598;BMP180;5346;48.766;8.674;2023-06-19T12:13:15;94095.00;;;30.60
10598;BMP180;5346;48.766;8.674;2023-06-19T12:15:50;94104.00;;;30.00
10598;BMP180;5346;48.766;8.674;2023-06-19T12:18:20;94100.00;;;29.80
10598;BMP180;5346;48.766;8.674;2023-06-19T12:20:56;94101.00;;;30.10
10598;BMP180;5346;48.766;8.674;2023-06-19T12:23:24;94100.00;;;29.60
10598;BMP180;5346;48.766;8.674;2023-06-19T12:25:59;94088.00;;;28.90
10598;BMP180;5346;48.766;8.674;2023-06-19T12:28:26;94092.00;;;30.10
10598;BMP180;5346;48.766;8.674;2023-06-19T12:31:00;94094.00;;;30.40
10598;BMP180;5346;48.766;8.674;2023-06-19T12:33:30;94101.00;;;29.70
10598;BMP180;5346;48.766;8.674;2023-06-19T12:36:08;94103.00;;;29.00
10598;BMP180;5346;48.766;8.674;2023-06-19T12:38:37;94102.00;;;28.20
10598;BMP180;5346;48.766;8.674;2023-06-19T12:41:13;94093.00;;;28.60
10598;BMP180;5346;48.766;8.674;2023-06-19T12:43:46;94084.00;;;28.60
10598;BMP180;5346;48.766;8.674;2023-06-19T12:46:21;94088.00;;;28.30
10598;BMP180;5346;48.766;8.674;2023-06-19T12:48:49;94093.00;;;27.90
10598;BMP180;5346;48.766;8.674;2023-06-19T12:51:26;94099.00;;;28.00
10598;BMP180;5346;48.766;8.674;2023-06-19T12:53:54;94086.00;;;28.10
10598;BMP180;5346;48.766;8.674;2023-06-19T12:56:22;94092.00;;;28.60
10598;BMP180;5346;48.766;8.674;2023-06-19T12:58:55;94085.00;;;28.60
10598;BMP180;5346;48.766;8.674;2023-06-19T13:01:23;94095.00;;;28.50
10598;BMP180;5346;48.766;8.674;2023-06-19T13:03:58;94093.00;;;28.40
10598;BMP180;5346;48.766;8.674;2023-06-19T13:06:33;94084.00;;;28.60
10598;BMP180;5346;48.766;8.674;2023-06-19T13:09:23;94092.00;;;28.40
10598;BMP180;5346;48.766;8.674;2023-06-19T13:11:51;94090.00;;;28.00
10598;BMP180;5346;48.766;8.674;2023-06-19T13:14:25;94090.00;;;27.70
10598;BMP180;5346;48.766;8.674;2023-06-19T13:16:59;94086.00;;;27.10
10598;BMP180;5346;48.766;8.674;2023-06-19T13:19:34;94087.00;;;26.80
10598;BMP180;5346;48.766;8.674;2023-06-19T13:22:08;94076.00;;;27.10
10598;BMP180;5346;48.766;8.674;2023-06-19T13:24:43;94083.00;;;26.90
10598;BMP180;5346;48.766;8.674;2023-06-19T13:27:18;94085.00;;;26.80
10598;BMP180;5346;48.766;8.674;2023-06-19T13:29:53;94083.00;;;26.80
10598;BMP180;5346;48.766;8.674;2023-06-19T13:32:29;94075.00;;;27.00
10598;BMP180;5346;48.766;8.674;2023-06-19T13:34:58;94086.00;;;26.60
10598;BMP180;5346;48.766;8.674;2023-06-19T13:37:34;94090.00;;;26.30
10598;BMP180;5346;48.766;8.674;2023-06-19T13:40:03;94087.00;;;26.50
10598;BMP180;5346;48.766;8.674;2023-06-19T13:42:37;94078.00;;;26.10
10598;BMP180;5346;48.766;8.674;2023-06-19T13:45:06;94083.00;;;25.90
10598;BMP180;5346;48.766;8.674;2023-06-19T13:47:41;94070.00;;;26.00
10598;BMP180;5346;48.766;8.674;2023-06-19T13:50:15;94065.00;;;26.50
10598;BMP180;5346;48.766;8.674;2023-06-19T13:52:46;94048.00;;;27.30
10598;BMP180;5346;48.766;8.674;2023-06-19T13:55:21;94049.00;;;27.40
10598;BMP180;5346;48.766;8.674;2023-06-19T13:57:50;94056.00;;;27.50
10598;BMP180;5346;48.766;8.674;2023-06-19T14:00:26;94060.00;;;26.80
10598;BMP180;5346;48.766;8.674;2023-06-19T14:03:00;94055.00;;;27.10
10598;BMP180;5346;48.766;8.674;2023-06-19T14:05:28;94058.00;;;27.10
10598;BMP180;5346;48.766;8.674;2023-06-19T14:08:05;94053.00;;;27.40
10598;BMP180;5346;48.766;8.674;2023-06-19T14:10:47;94053.00;;;27.90
10598;BMP180;5346;48.766;8.674;2023-06-19T14:13:15;94050.00;;;27.90
10598;BMP180;5346;48.766;8.674;2023-06-19T14:15:49;94051.00;;;27.90
10598;BMP180;5346;48.766;8.674;2023-06-19T14:18:23;94053.00;;;27.70
10598;BMP180;5346;48.766;8.674;2023-06-19T14:20:50;94053.00;;;27.70
10598;BMP180;5346;48.766;8.674;2023-06-19T14:23:18;94054.00;;;27.30
10598;BMP180;5346;48.766;8.674;2023-06-19T14:25:52;94063.00;;;26.90
10598;BMP180;5346;48.766;8.674;2023-06-19T14:28:25;94053.00;;;26.00
10598;BMP180;5346;48.766;8.674;2023-06-19T14:31:00;94053.00;;;26.20
10598;BMP180;5346;48.766;8.674;2023-06-19T14:33:35;94043.00;;;26.10
10598;BMP180;5346;48.766;8.674;2023-06-19T14:36:11;94042.00;;;26.60
10598;BMP180;5346;48.766;8.674;2023-06-19T14:38:45;94034.00;;;26.30
10598;BMP180;5346;48.766;8.674;2023-06-19T14:41:18;94036.00;;;26.70
10598;BMP180;5346;48.766;8.674;2023-06-19T14:43:46;94032.00;;;27.00
10598;BMP180;5346;48.766;8.674;2023-06-19T14:46:21;94038.00;;;27.00
10598;BMP180;5346;48.766;8.674;2023-06-19T14:49:07;94045.00;;;26.70
10598;BMP180;5346;48.766;8.674;2023-06-19T14:51:42;94032.00;;;26.70
10598;BMP180;5346;48.766;8.674;2023-06-19T14:54:10;94039.00;;;26.70
10598;BMP180;5346;48.766;8.674;2023-06-19T14:56:45;94046.00;;;26.60
10598;BMP180;5346;48.766;8.674;2023-06-19T14:59:15;94034.00;;;26.80
10598;BMP180;5346;48.766;8.674;2023-06-19T15:01:51;94033.00;;;27.00
10598;BMP180;5346;48.766;8.674;2023-06-19T15:04:19;94034.00;;;26.70